Terminal Aerodrome Forecast
Issued by NWS Sterling, VA

Home | Current Version | Previous Version | Text Only | Print | Product List | Glossary On
Versions: 1 2 3 4 5 6 7 8 9 10 11 12 13 14 15 16 17 18
188
FTUS41 KLWX 292326
TAFMRB
TAF
KMRB 292326Z 3000/3024 VRB04KT P6SM SCT080
     FM300900 VRB03KT 4SM BR BKN010
     FM301500 16005KT P6SM BKN020
     FM301700 17006KT P6SM BKN250=

USA.gov is the U.S. government's official web portal to all federal, state and local government web resources and services.